Parkersburg, Iowa
Current Conditions -  °F | °C
As of 12:54 AM on Wednesday 26 Nov 2014 (Local Time) from KALO Reporting Station
Broken Clouds Broken Clouds  
Wind Chill: 12°   Ceiling: 8500
Heat Index: 24°   Visibility: 10mi
Dew Point: 19°   Wind: 13mph
Humidity: 81%   Direction: 140°SE
Pressure: 30.03"   Gusts: NA
Location:  42.58°N, 92.79°W
Report Text: KALO 260654Z 14011KT 10SM SCT060 BKN085 M04/M07 A3003 RMK AO2 SLP180 T10441072
Loading
Personal Weather Stations






























Interactive Weather Map New forecast layout! Learn more

10-Day Weather Forecast

Advertisements
Track Severe Weather on mobile